createdAt,value
2019-02-21T00:00:56.991Z,8.60
2019-02-21T00:03:29.023Z,8.60
2019-02-21T00:06:00.794Z,8.50
2019-02-21T01:23:55.543Z,8.30
2019-02-21T01:26:27.742Z,8.40
2019-02-21T01:29:01.350Z,8.40
2019-02-21T01:31:34.349Z,8.40
2019-02-21T01:38:07.523Z,8.40
2019-02-21T01:40:38.312Z,8.40
2019-02-21T01:43:09.109Z,8.40
2019-02-21T01:45:40.724Z,8.30
2019-02-21T01:48:12.130Z,8.30
2019-02-21T01:50:44.683Z,8.30
2019-02-21T01:53:16.631Z,8.30
2019-02-21T01:55:47.569Z,8.40
2019-02-21T01:58:19.075Z,8.40
2019-02-21T02:00:50.484Z,8.40
2019-02-21T02:03:23.294Z,8.40
2019-02-21T02:05:54.702Z,8.50
2019-02-21T02:08:26.218Z,8.50
2019-02-21T02:11:00.637Z,8.50
2019-02-21T02:13:33.356Z,8.60
2019-02-21T02:16:05.075Z,8.60
2019-02-21T02:18:36.933Z,8.60
2019-02-21T02:21:09.280Z,8.60
2019-02-21T02:23:39.978Z,8.50
2019-02-21T02:26:11.258Z,8.50
2019-02-21T02:28:42.566Z,8.50
2019-02-21T02:31:22.715Z,8.50
2019-02-21T02:33:46.737Z,8.50
2019-02-21T02:36:17.836Z,8.50
2019-02-21T02:38:50.124Z,8.50
2019-02-21T02:41:22.055Z,8.50
2019-02-21T02:43:54.023Z,8.40
2019-02-21T02:46:25.204Z,8.40
2019-02-21T02:48:56.396Z,8.40
2019-02-21T02:51:29.059Z,8.30
2019-02-21T02:54:00.190Z,8.30
2019-02-21T02:56:32.546Z,8.30
2019-02-21T02:59:04.405Z,8.30
2019-02-21T03:01:36.552Z,8.30
2019-02-21T03:04:07.429Z,8.20
2019-02-21T03:06:39.636Z,8.20
2019-02-21T03:09:11.638Z,8.10
2019-02-21T03:11:42.110Z,8.20
2019-02-21T03:14:12.784Z,8.10
2019-02-21T03:16:44.916Z,8.20
2019-02-21T03:19:17.638Z,8.10
2019-02-21T03:21:48.643Z,8.10
2019-02-21T03:24:19.728Z,8.10
2019-02-21T03:26:50.809Z,8.20
2019-02-21T03:29:22.364Z,8.20
2019-02-21T03:31:55.668Z,8.00
2019-02-21T03:34:25.915Z,8.00
2019-02-21T03:36:57.154Z,8.00
2019-02-21T03:39:28.734Z,8.00
2019-02-21T03:42:00.436Z,8.10
2019-02-21T03:44:30.911Z,8.10
2019-02-21T03:47:01.600Z,8.00
2019-02-21T03:49:32.233Z,8.00
2019-02-21T03:52:03.283Z,8.00
2019-02-21T03:54:34.641Z,8.00
2019-02-21T03:57:05.463Z,8.00
2019-02-21T03:59:36.644Z,7.90
2019-02-21T04:02:08.150Z,7.90
2019-02-21T04:04:38.798Z,7.90
2019-02-21T04:07:09.931Z,7.90
2019-02-21T04:09:40.817Z,7.90
2019-02-21T04:12:11.162Z,7.90
2019-02-21T04:14:42.367Z,8.00
2019-02-21T04:17:14.107Z,8.00
2019-02-21T04:19:44.735Z,8.00
2019-02-21T04:22:16.075Z,8.00
2019-02-21T04:24:46.512Z,8.00
2019-02-21T04:27:18.165Z,7.90
2019-02-21T04:29:51.065Z,7.90
2019-02-21T04:32:24.220Z,7.90
2019-02-21T04:34:55.050Z,7.80
2019-02-21T04:37:25.605Z,7.80
2019-02-21T04:39:58.298Z,7.90
2019-02-21T04:42:33.415Z,7.90
2019-02-21T04:45:06.060Z,7.90
2019-02-21T04:51:19.805Z,8.00
2019-02-21T04:53:51.139Z,7.90
2019-02-21T04:56:21.873Z,7.90
2019-02-21T04:58:53.592Z,7.90
2019-02-21T05:01:23.650Z,7.90
2019-02-21T05:03:54.224Z,7.90
2019-02-21T05:06:24.840Z,7.90
2019-02-21T05:08:55.626Z,7.90
2019-02-21T05:11:26.286Z,7.80
2019-02-21T05:13:57.915Z,7.90
2019-02-21T05:16:28.856Z,7.90
2019-02-21T05:19:00.246Z,7.90
2019-02-21T05:21:31.999Z,7.90
2019-02-21T05:24:03.393Z,7.90
2019-02-21T05:26:36.089Z,7.80
2019-02-21T05:29:09.837Z,7.80
2019-02-21T05:31:42.387Z,7.80
2019-02-21T05:34:23.815Z,7.80
2019-02-21T05:36:57.937Z,7.80
2019-02-21T05:39:37.606Z,7.80
2019-02-21T05:42:29.948Z,7.80
2019-02-21T05:45:26.090Z,7.80
2019-02-21T05:48:01.274Z,7.80
2019-02-21T05:50:39.638Z,7.70
2019-02-21T05:56:42.283Z,7.70
2019-02-21T06:05:50.568Z,7.80
2019-02-21T06:08:29.190Z,7.70
2019-02-21T06:11:07.856Z,7.70
2019-02-21T06:13:49.563Z,7.80
2019-02-21T06:16:25.854Z,7.80
2019-02-21T06:19:10.235Z,7.80
2019-02-21T06:25:33.548Z,7.60
2019-02-21T06:28:14.907Z,7.60
2019-02-21T06:30:46.811Z,7.60
2019-02-21T06:33:18.448Z,7.60
2019-02-21T06:35:48.783Z,7.60
2019-02-21T06:38:20.140Z,7.60
2019-02-21T06:44:30.770Z,7.50
2019-02-21T06:56:50.536Z,7.60
2019-02-21T06:59:23.894Z,7.70
2019-02-21T07:01:56.176Z,7.70
2019-02-21T07:04:29.813Z,7.70
2019-02-21T07:07:03.196Z,7.70
2019-02-21T07:09:34.880Z,7.70
2019-02-21T07:15:32.834Z,7.80
2019-02-21T07:18:05.950Z,7.80
2019-02-21T07:20:41.814Z,7.80
2019-02-21T07:23:18.445Z,7.90
2019-02-21T07:25:57.870Z,7.80
2019-02-21T07:31:58.527Z,8.00
2019-02-21T07:37:28.076Z,8.00
2019-02-21T07:43:06.553Z,8.00
2019-02-21T07:45:55.440Z,8.00
2019-02-21T07:48:29.414Z,8.00
2019-02-21T07:51:01.866Z,8.10
2019-02-21T07:57:13.670Z,8.10
2019-02-21T07:59:45.187Z,8.10
2019-02-21T08:02:16.402Z,8.10
2019-02-21T08:04:48.743Z,8.10
2019-02-21T08:07:22.167Z,8.10
2019-02-21T08:09:54.596Z,8.10
2019-02-21T08:12:27.097Z,8.10
2019-02-21T08:14:58.288Z,8.10
2019-02-21T08:17:29.505Z,8.10
2019-02-21T08:20:07.991Z,8.20
2019-02-21T08:22:35.389Z,8.30
2019-02-21T08:25:10.688Z,8.30
2019-02-21T08:27:43.339Z,8.40
2019-02-21T08:30:17.174Z,8.30
2019-02-21T08:33:01.996Z,8.30
2019-02-21T08:35:35.873Z,8.40
2019-02-21T08:38:07.747Z,8.40
2019-02-21T08:40:40.538Z,8.40
2019-02-21T08:43:11.710Z,8.40
2019-02-21T08:45:43.033Z,8.40
2019-02-21T08:48:14.060Z,8.50
2019-02-21T08:50:45.884Z,8.50
2019-02-21T08:53:16.867Z,8.40
2019-02-21T08:55:48.088Z,8.40
2019-02-21T08:58:21.136Z,8.40
2019-02-21T09:00:54.485Z,8.40
2019-02-21T09:03:25.913Z,8.40
2019-02-21T09:05:57.670Z,8.50
2019-02-21T09:08:33.484Z,8.60
2019-02-21T09:11:04.050Z,8.60
2019-02-21T09:13:35.844Z,8.60
2019-02-21T09:16:06.509Z,8.60
2019-02-21T09:18:37.266Z,8.60
2019-02-21T09:21:09.469Z,8.50
2019-02-21T09:23:40.043Z,8.50
2019-02-21T09:26:10.767Z,8.70
2019-02-21T09:28:42.002Z,8.70
2019-02-21T09:31:13.226Z,8.70
2019-02-21T09:33:45.210Z,8.80
2019-02-21T09:36:16.748Z,8.80
2019-02-21T09:38:48.182Z,8.90
2019-02-21T09:41:18.875Z,8.90
2019-02-21T09:43:51.198Z,8.90
2019-02-21T09:46:22.309Z,8.90
2019-02-21T09:48:54.615Z,8.90
2019-02-21T09:51:26.078Z,8.90
2019-02-21T09:53:57.708Z,8.90
2019-02-21T09:56:30.758Z,9.00
2019-02-21T09:59:02.379Z,9.00
2019-02-21T10:01:33.254Z,9.00
2019-02-21T10:04:04.143Z,9.00
2019-02-21T10:06:35.469Z,9.00
2019-02-21T10:09:06.994Z,9.00
2019-02-21T10:11:38.417Z,8.90
2019-02-21T10:14:08.983Z,9.00
2019-02-21T10:16:40.778Z,9.00
2019-02-21T10:19:12.722Z,9.00
2019-02-21T10:21:43.899Z,9.00
2019-02-21T10:24:15.797Z,9.00
2019-02-21T10:26:47.062Z,9.00
2019-02-21T10:39:37.302Z,9.00
2019-02-21T10:42:08.943Z,9.10
2019-02-21T10:44:40.220Z,9.10
2019-02-21T10:47:11.202Z,9.20
2019-02-21T10:49:41.952Z,9.20
2019-02-21T10:52:13.824Z,9.20
2019-02-21T10:54:45.609Z,9.20
2019-02-21T10:57:17.241Z,9.20
2019-02-21T10:59:48.537Z,9.20
2019-02-21T11:02:25.315Z,9.20
2019-02-21T11:08:28.370Z,9.20
2019-02-21T11:10:59.218Z,9.30
2019-02-21T11:13:31.259Z,9.20
2019-02-21T11:19:30.355Z,9.20
2019-02-21T11:22:02.260Z,9.20
2019-02-21T11:24:36.471Z,9.20
2019-02-21T11:30:37.261Z,9.20
2019-02-21T11:43:22.225Z,9.10
2019-02-21T11:45:57.331Z,9.10
2019-02-21T11:48:36.595Z,9.20
2019-02-21T11:51:11.820Z,9.30
2019-02-21T11:57:52.735Z,9.30
2019-02-21T12:00:31.910Z,9.40
2019-02-21T12:06:20.639Z,9.40
2019-02-21T12:08:55.422Z,9.30
2019-02-21T12:11:32.062Z,9.30
2019-02-21T12:14:05.054Z,9.20
2019-02-21T12:16:38.629Z,9.30
2019-02-21T12:19:12.233Z,9.30
2019-02-21T12:21:45.866Z,9.30
2019-02-21T12:24:22.437Z,9.20
2019-02-21T12:26:55.211Z,9.20
2019-02-21T12:29:26.650Z,9.20
2019-02-21T12:31:58.149Z,9.10
2019-02-21T12:34:28.889Z,9.10
2019-02-21T12:37:00.634Z,9.20
2019-02-21T12:39:32.639Z,9.20
2019-02-21T12:42:04.849Z,9.10
2019-02-21T12:44:37.570Z,9.10
2019-02-21T12:47:07.997Z,9.10
2019-02-21T12:49:39.723Z,9.10
2019-02-21T12:52:10.731Z,9.10
2019-02-21T12:54:43.337Z,9.10
2019-02-21T12:57:16.288Z,9.00
2019-02-21T13:03:13.380Z,8.90
2019-02-21T13:05:47.268Z,8.90
2019-02-21T13:08:18.992Z,8.90
2019-02-21T13:10:49.809Z,8.90
2019-02-21T13:13:21.866Z,8.90
2019-02-21T13:15:53.525Z,9.00
2019-02-21T13:18:25.831Z,9.00
2019-02-21T13:20:58.035Z,8.90
2019-02-21T13:23:31.952Z,8.90
2019-02-21T13:26:05.664Z,8.90
2019-02-21T13:28:38.152Z,9.00
2019-02-21T13:31:09.859Z,8.90
2019-02-21T13:33:41.717Z,8.90
2019-02-21T13:36:13.928Z,9.00
2019-02-21T13:38:46.426Z,8.90
2019-02-21T13:41:18.450Z,8.90
2019-02-21T13:43:51.687Z,8.90
2019-02-21T13:46:23.486Z,8.90
2019-02-21T13:48:55.006Z,9.00
2019-02-21T13:51:26.593Z,9.00
2019-02-21T13:53:58.126Z,9.10
2019-02-21T13:56:29.734Z,9.10
2019-02-21T13:59:02.114Z,9.00
2019-02-21T14:01:34.078Z,9.00
2019-02-21T14:04:06.798Z,9.00
2019-02-21T14:06:38.030Z,9.00
2019-02-21T14:09:09.559Z,9.00
2019-02-21T14:11:40.161Z,9.00
2019-02-21T14:14:12.163Z,9.00
2019-02-21T14:16:46.855Z,9.00
2019-02-21T14:19:17.206Z,9.00
2019-02-21T14:21:50.053Z,8.90
2019-02-21T14:24:23.645Z,8.80
2019-02-21T14:26:55.500Z,8.80
2019-02-21T14:29:38.457Z,8.80
2019-02-21T14:32:01.616Z,8.80
2019-02-21T14:34:34.240Z,8.70
2019-02-21T14:37:05.903Z,8.80
2019-02-21T14:39:41.820Z,8.70
2019-02-21T14:42:17.154Z,8.70
2019-02-21T14:44:52.085Z,8.70
2019-02-21T14:47:31.089Z,8.80
2019-02-21T14:50:06.611Z,8.70
2019-02-21T14:52:48.078Z,8.70
2019-02-21T14:55:24.578Z,8.70
2019-02-21T14:58:04.344Z,8.70
2019-02-21T15:00:48.684Z,8.70
2019-02-21T15:03:24.640Z,8.70
2019-02-21T15:06:00.826Z,8.70
2019-02-21T15:08:34.422Z,8.70
2019-02-21T15:11:10.464Z,8.60
2019-02-21T15:13:49.480Z,8.70
2019-02-21T15:16:25.660Z,8.70
2019-02-21T15:19:04.692Z,8.70
2019-02-21T15:21:41.960Z,8.70
2019-02-21T15:24:16.606Z,8.70
2019-02-21T15:26:52.750Z,8.60
2019-02-21T15:29:27.587Z,8.70
2019-02-21T15:32:10.766Z,8.70
2019-02-21T15:34:35.831Z,8.70
2019-02-21T15:37:12.868Z,8.70
2019-02-21T15:39:48.555Z,8.70
2019-02-21T15:42:21.081Z,8.80
2019-02-21T15:44:54.058Z,8.80
2019-02-21T15:47:26.718Z,8.70
2019-02-21T15:49:59.396Z,8.70
2019-02-21T15:52:30.831Z,8.60
2019-02-21T15:55:11.939Z,8.60
2019-02-21T15:57:39.411Z,8.60
2019-02-21T16:00:16.608Z,8.60
2019-02-21T16:02:50.058Z,8.60
2019-02-21T16:05:22.166Z,8.60
2019-02-21T16:07:54.809Z,8.50
2019-02-21T16:10:30.378Z,8.50
2019-02-21T16:13:04.287Z,8.50
2019-02-21T16:15:35.927Z,8.50
2019-02-21T16:18:13.842Z,8.50
2019-02-21T16:20:45.532Z,8.50
2019-02-21T16:23:19.437Z,8.50
2019-02-21T16:25:54.828Z,8.50
2019-02-21T16:28:27.336Z,8.50
2019-02-21T16:31:00.874Z,8.40
2019-02-21T16:33:34.436Z,8.40
2019-02-21T16:36:08.085Z,8.40
2019-02-21T16:38:41.883Z,8.40
2019-02-21T16:41:14.599Z,8.40
2019-02-21T16:43:47.444Z,8.40
2019-02-21T16:46:20.858Z,8.40
2019-02-21T16:48:53.597Z,8.50
2019-02-21T16:51:26.553Z,8.50
2019-02-21T16:53:58.654Z,8.50
2019-02-21T16:56:33.175Z,8.40
2019-02-21T16:59:05.367Z,8.40
2019-02-21T17:01:38.912Z,8.30
2019-02-21T17:04:10.860Z,8.30
2019-02-21T17:06:43.448Z,8.30
2019-02-21T17:09:17.430Z,8.40
2019-02-21T17:11:49.421Z,8.40
2019-02-21T17:14:20.073Z,8.40
2019-02-21T17:16:51.800Z,8.50
2019-02-21T17:19:22.971Z,8.40
2019-02-21T17:21:54.039Z,8.30
2019-02-21T17:24:24.773Z,8.30
2019-02-21T17:26:56.486Z,8.40
2019-02-21T17:29:27.325Z,8.40
2019-02-21T17:31:58.075Z,8.50
2019-02-21T17:34:29.295Z,8.40
2019-02-21T17:37:01.016Z,8.40
2019-02-21T17:39:32.349Z,8.50
2019-02-21T17:42:03.276Z,8.40
2019-02-21T17:44:34.230Z,8.40
2019-02-21T17:47:05.388Z,8.40
2019-02-21T17:49:37.055Z,8.50
2019-02-21T17:52:08.448Z,8.50
2019-02-21T17:54:39.647Z,8.40
2019-02-21T18:21:03.254Z,8.40
2019-02-21T18:23:35.735Z,8.30
2019-02-21T18:26:12.518Z,8.30
2019-02-21T18:28:43.575Z,8.20
2019-02-21T18:31:15.290Z,8.30
2019-02-21T18:33:47.359Z,8.30
2019-02-21T18:36:18.707Z,8.30
2019-02-21T18:38:51.959Z,8.30
2019-02-21T18:41:26.885Z,8.30
2019-02-21T18:43:58.325Z,8.30
2019-02-21T18:53:07.330Z,8.30
2019-02-21T18:59:05.159Z,8.30
2019-02-21T19:02:16.281Z,8.30
2019-02-21T19:05:36.466Z,8.30
2019-02-21T19:25:06.672Z,8.40
2019-02-21T19:37:36.553Z,8.10
2019-02-21T19:40:13.369Z,8.10
2019-02-21T19:42:50.146Z,8.10
2019-02-21T19:45:21.839Z,8.10
2019-02-21T19:47:57.578Z,8.00
2019-02-21T19:50:41.241Z,8.00
2019-02-21T20:03:15.571Z,8.10
2019-02-21T20:05:47.749Z,8.10
2019-02-21T20:08:21.698Z,8.10
2019-02-21T20:10:54.134Z,8.00
2019-02-21T20:13:27.205Z,8.10
2019-02-21T20:31:37.907Z,8.20
2019-02-21T20:34:14.603Z,8.10
2019-02-21T20:36:51.356Z,8.10
2019-02-21T20:39:45.284Z,8.10
2019-02-21T20:48:38.353Z,8.10
2019-02-21T20:51:10.246Z,8.20
2019-02-21T20:53:50.783Z,8.10
2019-02-21T21:10:58.633Z,8.00
2019-02-21T21:13:30.001Z,8.00
2019-02-21T21:26:26.141Z,8.20
2019-02-21T21:32:41.730Z,8.10
2019-02-21T21:35:15.287Z,8.10
2019-02-21T21:37:50.806Z,8.10
2019-02-21T21:43:20.353Z,8.10
2019-02-21T21:43:48.566Z,8.10
2019-02-21T21:45:55.823Z,8.10
2019-02-21T21:48:37.428Z,8.10
2019-02-21T21:51:10.294Z,8.10
2019-02-21T21:53:41.956Z,8.10
2019-02-21T21:59:32.314Z,8.10
2019-02-21T22:02:06.845Z,8.20
2019-02-21T22:04:39.144Z,8.10
2019-02-21T22:07:10.536Z,8.10
2019-02-21T22:09:42.465Z,8.10
2019-02-21T22:26:24.826Z,8.10
2019-02-21T22:28:56.826Z,8.00
2019-02-21T22:31:29.016Z,8.10
2019-02-21T22:34:01.901Z,8.10
2019-02-21T22:43:28.538Z,8.10
2019-02-21T22:46:01.436Z,8.10
2019-02-21T22:48:32.359Z,8.20
2019-02-21T22:54:25.949Z,8.10
2019-02-21T23:03:53.539Z,8.00
2019-02-21T23:09:40.730Z,8.00
2019-02-21T23:12:12.744Z,8.00
2019-02-21T23:14:44.610Z,8.00
2019-02-21T23:20:35.453Z,8.10
2019-02-21T23:23:09.086Z,8.10
2019-02-21T23:25:45.685Z,8.10
2019-02-21T23:28:17.474Z,8.10
2019-02-21T23:30:49.580Z,8.00
2019-02-21T23:33:21.204Z,8.00
2019-02-21T23:35:53.353Z,8.10
2019-02-21T23:38:25.088Z,8.10
2019-02-21T23:40:57.383Z,8.10
2019-02-21T23:43:29.634Z,8.10
2019-02-21T23:46:01.533Z,8.10
2019-02-21T23:48:33.010Z,8.10
2019-02-21T23:51:04.415Z,8.10
2019-02-21T23:53:36.408Z,8.10
2019-02-21T23:58:40.446Z,8.10
